Latest Weather Observations for Mount Gellibrand

IDV60801

Issued at 5:05 am EDT Tuesday 25 November 2014 (issued every 30 minutes, with the page automatically refreshed every 10 minutes)

About weather observations | Map of weather stations | Latest weather observations for VIC | Other Formats
Station Details ID: 090035 Name: MOUNT GELLIBRAND Lat: -38.23 Lon: 143.79 Height: 261.0 m
Data from the previous 72 hours. | See also: Recent months at Mount Gellibrand
Date/Time
EDT
Temp
°C
App
Temp
°C
Dew
Point
Rel
Hum
%
Delta-T
°C
Wind Press
QNH
hPa
Press
MSL
hPa
Rain
since 9 am
mm
Dir
 
Spd
km/h
Gust
km/h
Spd
kts
Gust
kts
25/05:00am 7.5 1.4 6.8 95 0.3 WNW 28 37 15 20 1014.4 1014.1 15.6
25/04:30am 7.5 1.4 6.6 94 0.4 WNW 28 33 15 18 1014.1 1013.8 15.6
25/04:00am 7.6 1.1 6.7 94 0.4 WNW 30 37 16 20 1014.0 1013.6 15.6
25/03:30am 7.4 1.3 6.5 94 0.4 WNW 28 35 15 19 1014.0 1013.6 15.6
25/03:00am 7.4 1.2 6.3 93 0.5 WNW 28 32 15 17 1014.0 1013.6 15.6
25/02:30am 7.6 1.5 6.4 92 0.6 WNW 28 33 15 18 1014.0 1013.6 15.6
25/02:00am 8.0 2.3 6.6 91 0.7 W 26 30 14 16 1014.0 1013.6 15.6
25/01:30am 8.3 1.5 6.9 91 0.7 W 32 39 17 21 1013.9 1013.5 15.6
25/01:00am 8.3 2.3 6.9 91 0.7 WNW 28 32 15 17 1013.9 1013.5 15.6
25/12:30am 8.6 3.0 7.1 90 0.7 WNW 26 30 14 16 1013.8 1013.4 15.6
25/12:00am 9.1 2.7 6.9 86 1.0 W 30 35 16 19 1013.7 1013.3 15.4
 
Date/Time
EDT
Temp
°C
App
Temp
°C
Dew
Point
Rel
Hum
%
Delta-T
°C
Wind Press
QNH
hPa
Press
MSL
hPa
Rain
since 9 am
mm
Dir
 
Spd
km/h
Gust
km/h
Spd
kts
Gust
kts
24/11:30pm 9.1 3.4 6.9 86 1.0 W 26 33 14 18 1013.5 1013.1 15.4
24/11:00pm 9.1 4.6 7.1 87 1.0 W 20 24 11 13 1013.6 1013.2 15.4
24/10:30pm 9.2 4.0 7.2 87 1.0 W 24 28 13 15 1013.5 1013.1 15.4
24/10:00pm 9.7 3.8 7.3 85 1.2 W 28 33 15 18 1013.3 1012.9 15.4
24/09:30pm 10.7 5.8 6.8 77 1.9 W 22 32 12 17 1013.0 1012.6 15.4
24/09:00pm 11.0 4.5 6.7 75 2.1 WSW 30 39 16 21 1012.4 1012.0 15.4
24/08:30pm 11.7 3.0 6.2 69 2.6 WSW 41 50 22 27 1011.9 1011.5 15.4
24/08:00pm 12.4 5.7 7.5 72 2.4 WSW 32 48 17 26 1011.3 1011.0 15.4
24/07:30pm 13.0 5.5 8.1 72 2.5 WSW 37 48 20 26 1010.9 1010.6 15.4
24/07:00pm 12.2 6.1 9.9 86 1.2 WSW 32 39 17 21 1010.3 1009.9 15.2
24/06:30pm 13.0 7.7 11.2 89 1.0 WSW 30 39 16 21 1009.3 1008.9 15.2
24/06:00pm 11.9 5.8 10.3 90 0.8 WSW 33 44 18 24 1008.7 1008.3 15.2
24/05:30pm 11.5 5.4 10.4 93 0.6 SW 33 43 18 23 1008.3 1007.9 15.2
24/05:00pm 12.0 2.0 10.7 92 0.7 WSW 54 67 29 36 1007.7 1007.4 15.2
24/04:30pm 14.3 5.0 11.8 85 1.4 WSW 52 67 28 36 1006.7 1006.3 15.2
24/04:23pm 15.7 8.5 11.9 78 2.1 WSW 41 59 22 32 1006.9 1006.5 15.2
24/04:00pm 16.8 10.0 11.9 73 2.7 WSW 39 46 21 25 1007.1 1006.7 15.2
24/03:30pm 16.8 11.2 13.3 80 2.0 WSW 35 46 19 25 1007.4 1007.0 15.2
24/03:00pm 14.7 11.4 14.1 96 0.3 WSW 24 30 13 16 1007.3 1006.9 15.2
24/02:30pm 14.0 10.2 13.5 97 0.3 WSW 26 35 14 19 1007.6 1007.3 15.2
24/02:00pm 14.0 9.8 13.5 97 0.3 W 28 35 15 19 1008.0 1007.6 15.2
24/01:30pm 14.5 9.7 14.0 97 0.3 W 32 39 17 21 1008.1 1007.7 15.0
24/01:00pm 15.0 12.6 14.5 97 0.3 WNW 20 28 11 15 1008.3 1007.9 13.0
24/12:30pm 14.6 13.1 14.1 97 0.3 NNW 15 19 8 10 1007.5 1007.2 12.8
24/12:00pm 14.2 12.1 13.7 97 0.3 NNW 17 22 9 12 1008.3 1007.9 9.2
24/11:30am 13.3 11.3 12.7 96 0.3 N 15 20 8 11 1008.1 1007.7 9.2
24/11:00am 12.9 10.3 12.1 95 0.4 N 17 24 9 13 1009.3 1008.9 7.2
24/10:53am 12.8 11.3 12.0 95 0.4 N 11 17 6 9 1009.5 1009.1 5.6
24/10:30am 12.8 10.9 11.9 94 0.5 NNE 13 20 7 11 1007.4 1007.0 5.0
24/10:00am 13.4 12.9 12.0 91 0.8 W 6 7 3 4 1009.5 1009.1 1.8
24/09:30am 13.8 13.3 12.0 89 1.0 NNW 6 13 3 7 1009.9 1009.5 0.0
24/09:00am 13.4 12.2 11.6 89 1.0 ENE 9 15 5 8 1009.3 1008.9 4.0
24/08:30am 13.2 11.6 11.6 90 0.9 NE 11 17 6 9 1009.4 1009.0 3.2
24/08:00am 12.1 8.7 10.5 90 0.8 ENE 19 20 10 11 1008.4 1008.0 2.8
24/07:30am 12.4 9.2 10.1 86 1.2 SSW 17 20 9 11 1009.5 1009.1 2.2
24/07:00am 12.6 8.0 9.8 83 1.5 W 24 35 13 19 1010.5 1010.1 1.6
24/06:55am 13.7 11.2 9.7 77 2.1 ESE 13 20 7 11 1009.6 1009.2 0.0
24/06:30am 13.2 9.3 9.3 77 2.0 E 20 24 11 13 1007.4 1007.0 0.0
24/06:00am 13.1 9.0 8.6 74 2.3 E 20 22 11 12 1007.9 1007.5 0.0
24/05:30am 13.2 8.5 7.9 70 2.6 E 22 26 12 14 1008.0 1007.6 0.0
24/05:00am 13.1 8.0 7.8 70 2.6 ENE 24 28 13 15 1008.4 1008.0 0.0
24/04:30am 13.0 7.9 7.5 69 2.7 E 24 26 13 14 1008.6 1008.2 0.0
24/04:00am 13.0 7.5 7.5 69 2.7 E 26 28 14 15 1008.7 1008.3 0.0
24/03:30am 13.0 7.5 7.7 70 2.6 E 26 28 14 15 1009.4 1009.0 0.0
24/03:00am 12.6 7.4 8.9 78 1.9 E 26 28 14 15 1009.9 1009.5 0.0
24/02:30am 12.2 7.3 8.3 77 2.0 E 24 28 13 15 1010.2 1009.8 0.0
24/02:00am 12.7 7.4 8.4 75 2.2 E 26 30 14 16 1010.7 1010.3 0.0
24/01:30am 12.7 7.0 8.2 74 2.3 E 28 32 15 17 1010.9 1010.6 0.0
24/01:00am 12.3 7.2 9.3 82 1.5 E 26 28 14 15 1011.4 1011.1 0.0
24/12:30am 12.2 8.0 9.6 84 1.3 ESE 22 24 12 13 1012.2 1011.8 0.0
24/12:00am 12.6 8.0 9.6 82 1.5 E 24 26 13 14 1012.6 1012.2 0.0
 
Date/Time
EDT
Temp
°C
App
Temp
°C
Dew
Point
Rel
Hum
%
Delta-T
°C
Wind Press
QNH
hPa
Press
MSL
hPa
Rain
since 9 am
mm
Dir
 
Spd
km/h
Gust
km/h
Spd
kts
Gust
kts
23/11:30pm 12.8 8.2 9.8 82 1.6 E 24 28 13 15 1013.0 1012.6 0.0
23/11:00pm 12.8 8.9 10.7 87 1.1 ENE 22 26 12 14 1013.6 1013.2 0.0
23/10:30pm 12.8 8.4 10.5 86 1.2 E 24 28 13 15 1013.3 1012.9 0.0
23/10:00pm 12.9 9.2 10.3 84 1.4 E 20 24 11 13 1013.8 1013.4 0.0
23/09:30pm 13.0 8.8 9.8 81 1.7 ENE 22 24 12 13 1013.6 1013.2 0.0
23/09:00pm 13.4 8.8 9.8 79 1.9 E 24 30 13 16 1013.3 1012.9 0.0
23/08:30pm 13.8 8.5 10.0 78 2.0 E 28 32 15 17 1013.0 1012.6 0.0
23/08:00pm 14.5 9.3 10.1 75 2.3 E 28 33 15 18 1012.6 1012.2 0.0
23/07:30pm 15.2 10.6 9.8 70 2.8 E 24 30 13 16 1012.6 1012.2 0.0
23/07:00pm 16.1 11.4 9.3 64 3.6 E 24 30 13 16 1012.5 1012.1 0.0
23/06:30pm 16.8 12.1 9.2 61 4.0 E 24 32 13 17 1012.4 1012.0 0.0
23/06:00pm 17.0 12.3 9.4 61 4.0 E 24 28 13 15 1012.4 1012.0 0.0
23/05:30pm 17.4 13.4 10.3 63 3.8 E 22 28 12 15 1012.4 1012.0 0.0
23/05:00pm 21.3 19.0 10.5 50 6.0 S 13 20 7 11 1012.3 1011.9 0.0
23/04:30pm 22.3 18.0 7.7 39 7.7 WSW 20 28 11 15 1012.0 1011.6 0.0
23/04:00pm 23.3 18.8 6.1 33 8.9 W 19 28 10 15 1011.9 1011.5 0.0
23/03:30pm 23.2 18.7 6.1 33 8.8 W 19 28 10 15 1011.9 1011.5 0.0
23/03:00pm 23.6 20.2 6.0 32 9.1 WNW 13 24 7 13 1012.2 1011.8 0.0
23/02:30pm 23.3 19.9 7.8 37 8.2 WNW 15 22 8 12 1011.9 1011.5 0.0
23/02:00pm 23.6 21.6 8.8 39 8.0 W 9 19 5 10 1012.0 1011.6 0.0
23/01:30pm 21.7 18.5 8.6 43 7.0 WNW 15 22 8 12 1011.7 1011.4 0.0
23/01:00pm 21.4 19.2 8.0 42 7.1 WSW 9 15 5 8 1011.6 1011.3 0.0
23/12:30pm 21.2 19.5 8.5 44 6.8 SW 7 13 4 7 1011.9 1011.5 0.0
23/12:00pm 20.3 18.8 9.2 49 6.0 SW 7 13 4 7 1012.1 1011.7 0.0
23/11:30am 19.0 17.3 8.4 50 5.6 W 7 17 4 9 1012.6 1012.2 0.0
23/11:00am 18.2 16.9 9.3 56 4.7 WNW 6 11 3 6 1012.8 1012.4 0.0
23/10:30am 17.9 16.5 9.5 58 4.5 WNW 7 15 4 8 1012.9 1012.5 0.0
23/10:00am 16.8 15.8 10.2 65 3.5 W 6 9 3 5 1013.2 1012.8 0.0
23/09:30am 15.7 14.5 11.5 76 2.3 WSW 9 13 5 7 1013.2 1012.8 0.0
23/09:00am 14.5 13.8 11.3 81 1.7 W 6 9 3 5 1013.4 1013.0 3.0
23/08:30am 13.7 12.1 11.4 86 1.2 SW 11 13 6 7 1013.0 1012.6 3.0
23/08:00am 12.9 11.3 11.5 91 0.8 SW 11 13 6 7 1012.6 1012.2 3.0
23/07:30am 12.6 11.3 11.3 92 0.7 WSW 9 11 5 6 1012.5 1012.1 3.0
23/07:00am 12.2 11.3 11.3 94 0.5 SSW 7 9 4 5 1012.6 1012.2 3.0
23/06:30am 11.4 9.5 10.6 95 0.4 SW 11 11 6 6 1012.1 1011.7 3.0
23/06:00am 11.1 8.8 10.3 95 0.4 SW 13 15 7 8 1011.5 1011.2 3.0
23/05:30am 11.2 8.5 10.4 95 0.4 SW 15 17 8 9 1011.0 1010.7 3.0
23/05:00am 11.5 8.1 10.7 95 0.4 WSW 19 20 10 11 1011.0 1010.7 3.0
23/04:30am 11.9 10.2 11.1 95 0.4 W 11 15 6 8 1010.7 1010.3 3.0
23/04:00am 11.9 10.2 11.3 96 0.3 W 11 15 6 8 1010.5 1010.1 3.0
23/03:30am 12.0 9.9 11.2 95 0.4 W 13 15 7 8 1010.6 1010.2 3.0
23/03:00am 12.8 9.8 12.0 95 0.4 WSW 19 19 10 10 1010.3 1009.9 3.0
23/02:30am 13.1 9.9 12.0 93 0.6 WSW 20 22 11 12 1010.2 1009.8 3.0
23/02:00am 13.1 9.5 12.0 93 0.6 WSW 22 24 12 13 1010.2 1009.8 3.0
23/01:30am 12.8 9.7 11.5 92 0.7 W 19 22 10 12 1010.4 1010.0 3.0
23/01:00am 13.0 9.6 11.4 90 0.9 W 20 24 11 13 1010.4 1010.0 3.0
23/12:30am 13.0 9.2 11.1 88 1.0 W 22 26 12 14 1010.3 1009.9 3.0
23/12:00am 13.2 9.8 11.4 89 1.0 W 20 24 11 13 1009.8 1009.4 3.0
 
Date/Time
EDT
Temp
°C
App
Temp
°C
Dew
Point
Rel
Hum
%
Delta-T
°C
Wind Press
QNH
hPa
Press
MSL
hPa
Rain
since 9 am
mm
Dir
 
Spd
km/h
Gust
km/h
Spd
kts
Gust
kts
22/11:30pm 13.5 10.2 11.6 88 1.0 W 20 24 11 13 1009.7 1009.3 3.0
22/11:00pm 14.0 11.0 11.9 87 1.1 W 19 22 10 12 1009.5 1009.1 3.0
22/10:30pm 14.5 10.9 12.0 85 1.4 WSW 22 26 12 14 1009.2 1008.8 3.0
22/10:00pm 15.1 10.1 12.2 83 1.6 WSW 30 33 16 18 1008.8 1008.4 3.0
22/09:30pm 15.6 9.6 12.2 80 1.9 WSW 35 39 19 21 1008.1 1007.7 3.0
22/09:00pm 16.5 10.9 12.1 75 2.4 WSW 33 39 18 21 1007.6 1007.3 3.0
22/08:30pm 17.6 12.5 11.9 69 3.2 SW 30 37 16 20 1007.3 1006.9 3.0
22/08:00pm 18.3 13.1 12.7 70 3.2 SW 32 39 17 21 1007.0 1006.6 3.0
22/07:30pm 18.8 14.6 13.4 71 3.1 SW 28 33 15 18 1006.1 1005.7 3.0
22/07:00pm 18.2 13.2 14.1 77 2.4 WSW 33 39 18 21 1006.6 1006.2 2.6
22/06:40pm 19.9 15.0 13.6 67 3.7 WSW 32 37 17 20 1005.5 1005.1 2.0
22/06:37pm 21.2 15.0 13.9 63 4.3 W 39 52 21 28 1005.3 1004.9 2.0
22/06:30pm 21.4 14.8 13.8 62 4.5 WSW 41 65 22 35 1004.7 1004.3 0.0
22/06:29pm 21.2 15.4 13.9 63 4.3 WSW 37 61 20 33 1004.7 1004.3 0.0
22/06:25pm 23.6 18.2 12.9 51 6.2 W 33 37 18 20 1005.0 1004.6 0.0
22/06:15pm 27.4 18.0 10.2 34 9.7 NNW 50 69 27 37 1003.7 1003.3 0.0
22/06:00pm 27.4 16.7 10.2 34 9.8 NNW 57 72 31 39 1004.0 1003.5 0.0
22/05:30pm 28.5 17.8 10.2 32 10.4 NW 57 74 31 40 1003.9 1003.4 0.0
22/05:00pm 28.7 17.4 9.4 30 10.9 NW 59 76 32 41 1004.1 1003.6 0.0
22/04:43pm 30.0 19.7 9.5 28 11.6 NNW 54 80 29 43 1003.6 1003.2 0.0
22/04:30pm 29.2 18.7 7.2 25 12.0 NNW 52 65 28 35 1004.2 1003.7 0.0
22/04:11pm 29.7 18.7 7.0 24 12.3 NNW 54 80 29 43 1004.1 1003.6 0.0
22/04:00pm 29.7 19.1 7.0 24 12.4 NNW 52 67 28 36 1004.4 1004.0 0.0
22/03:55pm 30.8 21.4 7.3 23 12.9 NNW 46 67 25 36 1004.6 1004.2 0.0
22/03:30pm 29.3 19.6 6.0 23 12.4 NNW 46 59 25 32 1005.3 1004.9 0.0
22/03:13pm 28.7 18.6 5.5 23 12.2 N 48 69 26 37 1005.7 1005.3 0.0
22/03:00pm 28.8 17.5 5.6 23 12.3 NNW 54 69 29 37 1005.6 1005.2 0.0
22/02:30pm 28.2 18.0 5.1 23 12.1 NNW 48 63 26 34 1006.5 1006.1 0.0
22/02:00pm 27.9 18.0 4.9 23 12.0 NNW 46 61 25 33 1006.8 1006.4 0.0
22/01:30pm 27.9 19.1 3.6 21 12.3 N 39 54 21 29 1007.1 1006.7 0.0
22/01:00pm 26.5 18.1 5.5 26 11.0 N 39 52 21 28 1007.6 1007.3 0.0
22/12:30pm 24.7 18.1 7.8 34 9.1 NNW 32 39 17 21 1008.4 1008.0 0.0
22/12:00pm 24.8 18.6 7.9 34 9.1 NNW 30 37 16 20 1008.8 1008.4 0.0
22/11:30am 24.4 17.9 8.0 35 8.8 N 32 46 17 25 1008.6 1008.2 0.0
22/11:29am 23.9 17.1 7.9 36 8.6 N 33 52 18 28 1008.6 1008.2 0.0
22/11:03am 21.0 12.4 6.5 39 7.4 N 41 50 22 27 1007.6 1007.3 0.0
22/11:00am 21.2 13.0 6.7 39 7.5 N 39 50 21 27 1009.7 1009.3 0.0
22/10:54am 21.7 13.8 6.4 37 7.9 N 37 50 20 27 1010.0 1009.6 0.0
22/10:30am 20.4 15.6 9.0 48 6.1 N 24 30 13 16 1009.7 1009.3 0.0
22/10:00am 18.3 14.9 10.4 60 4.3 N 19 22 10 12 1009.7 1009.3 0.0
22/09:30am 16.0 12.3 10.3 69 3.0 N 20 26 11 14 1009.8 1009.4 0.0
22/09:00am 14.9 12.6 11.9 82 1.6 N 15 22 8 12 1009.9 1009.5 0.0
22/08:30am 12.7 11.2 10.4 86 1.2 N 9 13 5 7 1010.3 1009.9 0.0
22/08:00am 13.5 12.6 10.7 83 1.5 NNW 6 9 3 5 1011.0 1010.7 0.0
22/07:30am 12.1 10.8 10.0 87 1.1 NE 7 11 4 6 1011.0 1010.7 0.0
22/07:00am 13.2 12.7 10.6 84 1.4 E 4 7 2 4 1011.0 1010.7 0.0
22/06:30am 11.8 10.1 9.9 88 1.0 ENE 9 11 5 6 1010.1 1009.7 0.0
22/06:00am 12.1 10.8 10.0 87 1.1 E 7 7 4 4 1010.1 1009.7 0.0
22/05:30am 12.3 11.4 10.5 89 0.9 E 6 9 3 5 1010.5 1010.1 0.0

Other Formats:

Comma delimited format used in spreadsheet applications
http://www.bom.gov.au/fwo/IDV60801/IDV60801.95845.axf

JavaScript Object Notation format (JSON) in row-major order
http://www.bom.gov.au/fwo/IDV60801/IDV60801.95845.json